Time;durP1;ratioP1;P1;durP2;ratioP2;P2;SDS_P1;SDS_P2;PMS_P1;PMS_P2;Temp;Humidity;BMP_temperature;BMP_pressure;BME280_temperature;BME280_humidity;BME280_pressure;Samples;Min_cycle;Max_cycle;Signal;HPM_P1;HPM_P2
2023/10/07 01:36:20;;;;;;;6.50;5.17;;;;;;;8.32;100.00;99989.22;4944876;29;20218;-85
2023/10/07 01:39:27;;;;;;;8.40;5.70;;;;;;;8.30;100.00;99985.94;4940114;29;20210;-85
2023/10/07 01:42:01;;;;;;;7.90;5.80;;;;;;;8.21;100.00;99987.06;4943810;29;20206;-85
2023/10/07 01:45:21;;;;;;;7.03;5.43;;;;;;;8.16;100.00;99979.66;4930011;29;20196;-83
2023/10/07 01:48:27;;;;;;;7.23;5.33;;;;;;;8.14;100.00;99987.03;4923960;29;20202;-85
2023/10/07 01:51:05;;;;;;;8.33;5.87;;;;;;;8.08;100.00;99987.78;4943594;29;20214;-85
2023/10/07 07:13:27;;;;;;;6.83;3.20;;;;;;;15.40;100.00;99936.97;4959185;23;20273;-85
2023/10/07 07:16:06;;;;;;;7.93;3.53;;;;;;;15.44;100.00;99940.84;4893091;29;20214;-86
2023/10/07 07:18:39;;;;;;;4.60;3.03;;;;;;;15.52;100.00;99940.47;4884350;29;20671;-86
2023/10/07 07:21:31;;;;;;;5.27;3.30;;;;;;;15.61;100.00;99938.19;4870326;29;20746;-86
2023/10/07 07:23:59;;;;;;;4.47;3.07;;;;;;;15.69;100.00;99938.59;4871961;29;20216;-87
2023/10/07 07:26:30;;;;;;;5.97;3.00;;;;;;;15.79;100.00;99944.16;4906616;29;20210;-87
2023/10/07 07:28:59;;;;;;;5.40;3.10;;;;;;;15.95;100.00;99941.69;4883916;29;20297;-88
2023/10/07 07:31:35;;;;;;;6.13;3.47;;;;;;;16.13;100.00;99941.44;4902247;29;20746;-88
2023/10/07 07:37:10;;;;;;;5.93;3.37;;;;;;;16.62;100.00;99936.97;4861693;29;20234;-87
2023/10/07 07:39:39;;;;;;;4.50;3.20;;;;;;;16.82;100.00;99949.94;4846623;29;20212;-89
2023/10/07 07:42:15;;;;;;;5.33;3.10;;;;;;;17.02;100.00;99933.94;4879911;29;20222;-87
2023/10/07 07:44:57;;;;;;;3.40;2.67;;;;;;;17.24;100.00;99955.56;4901244;29;20201;-87
2023/10/07 07:47:31;;;;;;;4.40;3.23;;;;;;;17.47;100.00;99947.13;4899072;29;20209;-88
2023/10/07 07:50:01;;;;;;;4.90;3.30;;;;;;;17.70;100.00;99946.00;4903102;29;20638;-87
2023/10/07 07:52:32;;;;;;;6.93;3.57;;;;;;;17.87;100.00;99938.56;4886776;29;20206;-86
2023/10/07 07:55:00;;;;;;;3.87;2.90;;;;;;;18.07;100.00;99936.00;4886853;29;20200;-87
2023/10/07 07:57:28;;;;;;;4.53;3.10;;;;;;;18.30;100.00;99938.31;4886475;29;20206;-86
2023/10/07 07:59:58;;;;;;;5.80;3.47;;;;;;;18.53;100.00;99925.38;4869786;29;20242;-87
2023/10/07 08:02:26;;;;;;;5.30;3.00;;;;;;;18.73;100.00;99930.94;4869349;29;20233;-87
2023/10/07 08:05:02;;;;;;;6.27;3.13;;;;;;;18.93;100.00;99933.75;4868898;29;20212;-87
2023/10/07 08:07:31;;;;;;;3.87;2.83;;;;;;;19.14;100.00;99931.88;4888562;29;20211;-87
2023/10/07 08:10:03;;;;;;;3.53;3.03;;;;;;;19.29;100.00;99931.91;4897036;29;20270;-87
2023/10/07 08:12:36;;;;;;;3.93;3.03;;;;;;;19.46;100.00;99928.97;4877277;29;20240;-86
2023/10/07 08:17:45;;;;;;;5.17;3.10;;;;;;;19.90;96.84;99927.34;4881644;29;20245;-87
2023/10/07 08:20:13;;;;;;;5.03;2.70;;;;;;;20.16;85.32;99928.94;4857391;29;20208;-87
2023/10/07 08:22:47;;;;;;;7.30;3.17;;;;;;;20.36;81.66;99922.66;4866328;29;20658;-86
2023/10/07 08:25:26;;;;;;;7.63;2.77;;;;;;;20.62;73.53;99920.69;4884561;29;20660;-87
2023/10/07 08:27:55;;;;;;;4.67;3.40;;;;;;;20.83;71.94;99915.97;4856867;29;20215;-87
2023/10/07 08:30:37;;;;;;;7.27;3.27;;;;;;;20.98;70.65;99910.44;4867168;29;20204;-86
2023/10/07 08:33:07;;;;;;;4.93;3.30;;;;;;;21.08;68.42;99919.38;4878656;29;20664;-85
2023/10/07 08:35:35;;;;;;;7.73;3.27;;;;;;;21.25;65.99;99907.28;4899887;29;20202;-85
2023/10/07 08:38:19;;;;;;;7.47;2.97;;;;;;;21.40;63.41;99904.47;4915508;29;20214;-85
2023/10/07 08:41:04;;;;;;;8.63;3.53;;;;;;;21.41;63.73;99898.75;4898757;29;20233;-84
2023/10/07 08:44:02;;;;;;;6.27;3.20;;;;;;;21.60;60.25;99901.59;4885050;29;20208;-88
2023/10/07 08:46:33;;;;;;;8.63;2.90;;;;;;;21.67;58.59;99896.63;4870058;29;20601;-87
2023/10/07 08:49:04;;;;;;;13.67;3.57;;;;;;;21.64;57.34;99889.03;4864195;29;20209;-87
2023/10/07 08:51:40;;;;;;;8.80;3.37;;;;;;;21.70;57.55;99887.84;4865052;29;20216;-87
2023/10/07 08:54:17;;;;;;;7.90;3.00;;;;;;;21.90;57.51;99884.94;4860500;29;20245;-87
2023/10/07 08:56:54;;;;;;;8.05;3.58;;;;;;;21.98;54.10;99877.28;4867559;29;20212;-88
2023/10/07 08:59:22;;;;;;;9.43;3.17;;;;;;;22.11;53.48;99873.88;4870138;29;20208;-88
2023/10/07 09:04:37;;;;;;;9.73;3.50;;;;;;;22.17;53.23;99861.78;4863783;29;20234;-87
2023/10/07 09:07:08;;;;;;;7.55;2.92;;;;;;;22.20;51.45;99862.03;4851125;29;20708;-87
2023/10/07 09:09:44;;;;;;;7.47;3.30;;;;;;;22.31;51.57;99863.53;4854856;29;20218;-87
2023/10/07 09:12:15;;;;;;;11.65;3.30;;;;;;;22.59;51.06;99863.72;4850482;29;20622;-88
2023/10/07 09:15:12;;;;;;;5.75;2.97;;;;;;;22.77;48.45;99862.97;4862003;29;20302;-87
2023/10/07 09:17:45;;;;;;;6.60;3.10;;;;;;;22.63;47.78;99862.84;4876527;29;20300;-88
2023/10/07 09:20:29;;;;;;;5.20;3.33;;;;;;;22.79;47.93;99841.63;4880901;29;20212;-87
2023/10/07 09:23:19;;;;;;;4.82;3.28;;;;;;;22.83;46.87;99850.88;4861410;29;20207;-87
2023/10/07 09:25:50;;;;;;;6.57;3.10;;;;;;;22.87;46.02;99848.34;4865524;29;20210;-87
2023/10/07 09:28:31;;;;;;;6.03;2.90;;;;;;;22.94;46.41;99840.63;4866593;29;20242;-87
2023/10/07 09:31:05;;;;;;;4.78;3.05;;;;;;;22.95;46.60;99839.50;4860295;29;20199;-87
2023/10/07 09:33:37;;;;;;;6.32;3.28;;;;;;;23.16;47.11;99844.34;4862050;29;20273;-87
2023/10/07 09:39:13;;;;;;;6.25;3.45;;;;;;;23.50;45.42;99846.84;4848638;29;20298;-87
2023/10/07 09:41:44;;;;;;;8.85;3.35;;;;;;;23.54;44.97;99847.06;4869703;29;20335;-87
2023/10/07 09:44:21;;;;;;;6.13;3.35;;;;;;;23.64;44.02;99861.38;4854319;29;20212;-87
2023/10/07 09:46:52;;;;;;;5.03;2.95;;;;;;;23.56;43.72;99831.19;4850896;29;20208;-87
2023/10/07 09:49:23;;;;;;;3.95;3.00;;;;;;;23.54;42.82;99836.13;4839230;29;20209;-87
2023/10/07 09:51:56;;;;;;;5.72;3.28;;;;;;;23.57;42.68;99836.31;4868733;29;20304;-87
2023/10/07 09:54:30;;;;;;;7.72;3.63;;;;;;;23.57;42.32;99830.84;4871602;29;20203;-88
2023/10/07 09:57:22;;;;;;;5.03;3.22;;;;;;;23.56;42.93;99829.22;4850358;29;20208;-87
2023/10/07 10:03:04;;;;;;;6.03;3.20;;;;;;;23.84;40.88;99823.84;4866691;29;20231;-87
2023/10/07 10:05:47;;;;;;;5.68;3.20;;;;;;;23.86;39.42;99811.47;4880838;29;20226;-87
2023/10/07 10:08:29;;;;;;;8.40;3.15;;;;;;;23.91;38.30;99811.38;4884078;29;20196;-87
2023/10/07 10:11:08;;;;;;;6.55;3.70;;;;;;;23.94;39.33;99804.47;4881327;29;20207;-87
2023/10/07 10:16:14;;;;;;;8.77;3.75;;;;;;;24.20;38.37;99802.88;4906427;29;20216;-86
2023/10/07 10:19:12;;;;;;;6.88;3.80;;;;;;;24.32;37.11;99813.31;4878072;29;20211;-86
2023/10/07 10:21:36;;;;;;;7.93;3.80;;;;;;;24.38;37.05;99799.22;4892921;29;20227;-86
2023/10/07 10:24:03;;;;;;;7.18;3.75;;;;;;;24.55;36.46;99806.78;4879171;29;20289;-86
2023/10/07 10:26:35;;;;;;;9.50;4.35;;;;;;;24.65;36.18;99790.13;4861668;29;20212;-85
2023/10/07 10:29:15;;;;;;;7.03;3.97;;;;;;;24.76;35.45;99788.78;4869535;29;20203;-86
2023/10/07 10:31:50;;;;;;;5.57;3.92;;;;;;;24.92;35.90;99792.81;4879913;29;20297;-86
2023/10/07 10:34:20;;;;;;;8.70;3.70;;;;;;;25.18;35.13;99789.47;4849358;29;20209;-86
2023/10/07 10:36:55;;;;;;;8.80;4.20;;;;;;;25.08;35.45;99798.75;4864490;29;20650;-86
2023/10/07 10:39:31;;;;;;;6.85;4.00;;;;;;;25.22;36.04;99779.50;4865516;29;20226;-86
2023/10/07 10:42:13;;;;;;;6.70;3.80;;;;;;;25.31;36.52;99794.06;4888229;29;20218;-86
2023/10/07 10:44:46;;;;;;;5.78;4.05;;;;;;;25.43;36.25;99783.31;4862162;29;20305;-86
2023/10/07 10:47:16;;;;;;;6.05;3.60;;;;;;;25.63;36.28;99798.47;4864563;29;20306;-86
2023/10/07 10:49:54;;;;;;;5.50;3.67;;;;;;;25.74;36.58;99797.09;4879189;29;20205;-85
2023/10/07 10:52:22;;;;;;;4.40;3.63;;;;;;;25.71;36.81;99784.78;4885484;29;20206;-86
2023/10/07 10:54:51;;;;;;;4.82;3.63;;;;;;;25.86;36.53;99791.81;4865567;29;20293;-86
2023/10/07 10:57:19;;;;;;;4.63;3.60;;;;;;;25.76;35.96;99800.31;4863441;29;20268;-86
2023/10/07 10:59:47;;;;;;;9.68;3.72;;;;;;;25.58;36.22;99784.88;4862712;29;20211;-86
2023/10/07 11:02:22;;;;;;;6.32;3.88;;;;;;;25.80;36.98;99790.34;4885878;29;20288;-86
2023/10/07 11:04:51;;;;;;;4.18;3.10;;;;;;;25.65;37.92;99774.28;4869068;29;20300;-86
2023/10/07 11:07:22;;;;;;;4.85;2.80;;;;;;;25.65;37.38;99777.84;4885503;29;20209;-86
2023/10/07 11:09:53;;;;;;;3.95;2.78;;;;;;;25.63;37.56;99776.53;4871575;29;20214;-86
2023/10/07 11:12:26;;;;;;;4.25;3.50;;;;;;;25.62;37.95;99775.72;4883898;29;20335;-86
2023/10/07 11:15:07;;;;;;;4.88;3.10;;;;;;;25.63;38.18;99760.06;4882963;29;20268;-85
2023/10/07 11:17:51;;;;;;;4.55;3.30;;;;;;;25.69;38.79;99758.81;4878018;29;20220;-85
2023/10/07 11:20:19;;;;;;;4.93;3.30;;;;;;;25.50;40.08;99750.78;4877487;29;20209;-85
2023/10/07 11:22:48;;;;;;;5.10;3.40;;;;;;;25.34;39.74;99755.84;4861478;29;20285;-85
2023/10/07 11:25:16;;;;;;;4.50;3.30;;;;;;;25.33;40.05;99743.28;4881095;29;20202;-85
2023/10/07 11:27:43;;;;;;;5.55;3.47;;;;;;;25.26;40.13;99747.56;4902439;29;20211;-86
2023/10/07 11:30:17;;;;;;;4.95;3.38;;;;;;;25.37;40.50;99752.50;4865363;29;20743;-85
2023/10/07 11:32:46;;;;;;;6.15;3.58;;;;;;;25.33;39.33;99740.53;4881078;29;20294;-85
2023/10/07 11:35:19;;;;;;;6.93;3.60;;;;;;;25.24;39.24;99725.94;4882052;29;20197;-85
2023/10/07 11:37:57;;;;;;;5.05;3.38;;;;;;;25.29;39.34;99749.72;4877888;29;20219;-86
2023/10/07 11:40:30;;;;;;;5.18;3.80;;;;;;;25.16;39.06;99739.59;4865802;29;20204;-86
2023/10/07 11:43:11;;;;;;;5.18;3.30;;;;;;;24.97;38.52;99734.31;4856242;29;20234;-85
2023/10/07 11:45:42;;;;;;;7.68;3.67;;;;;;;25.00;38.32;99728.22;4849734;29;20237;-85
2023/10/07 11:48:11;;;;;;;6.70;3.90;;;;;;;24.92;37.54;99724.28;4868905;29;20235;-85
2023/10/07 11:50:38;;;;;;;5.43;3.53;;;;;;;24.75;36.80;99734.28;4882654;29;20207;-84
2023/10/07 11:53:07;;;;;;;8.60;3.58;;;;;;;25.06;36.50;99732.44;4871875;29;20211;-86
2023/10/07 11:55:35;;;;;;;6.32;3.25;;;;;;;25.04;35.66;99725.66;4871196;29;20206;-85
2023/10/07 11:58:08;;;;;;;5.75;3.60;;;;;;;24.90;35.15;99718.34;4865265;29;20211;-85
2023/10/07 12:00:37;;;;;;;5.53;3.10;;;;;;;25.09;35.20;99729.09;4864063;29;20205;-85
2023/10/07 12:03:08;;;;;;;3.88;3.33;;;;;;;25.32;34.99;99722.47;4885804;29;20229;-85
2023/10/07 12:05:42;;;;;;;4.30;3.00;;;;;;;25.29;34.00;99720.34;4887143;29;20215;-86
2023/10/07 12:08:11;;;;;;;4.57;3.25;;;;;;;25.23;33.29;99715.31;4885831;29;20202;-85
2023/10/07 12:10:40;;;;;;;5.82;3.30;;;;;;;25.16;33.50;99717.66;4884061;29;20225;-85
2023/10/07 12:13:11;;;;;;;3.75;3.00;;;;;;;25.04;33.21;99715.53;4864796;29;20258;-85
2023/10/07 12:15:42;;;;;;;7.32;3.38;;;;;;;24.73;33.91;99711.91;4880781;29;20217;-85
2023/10/07 12:18:19;;;;;;;5.00;3.08;;;;;;;24.68;33.08;99712.00;4879546;29;20282;-85
2023/10/07 12:20:47;;;;;;;5.28;2.80;;;;;;;24.55;32.31;99711.72;4860311;29;20210;-85
2023/10/07 12:23:19;;;;;;;3.30;3.00;;;;;;;24.55;32.94;99709.00;4877814;29;20235;-86
2023/10/07 12:25:49;;;;;;;4.70;2.97;;;;;;;24.79;32.54;99721.59;4893409;29;20197;-85
2023/10/07 12:28:18;;;;;;;3.97;2.80;;;;;;;25.05;31.87;99714.41;4880054;29;20716;-85
2023/10/07 12:30:49;;;;;;;7.57;3.58;;;;;;;25.57;31.43;99704.53;4842486;29;20296;-85
2023/10/07 12:33:20;;;;;;;6.07;2.88;;;;;;;25.86;31.12;99693.81;4874215;29;20204;-85
2023/10/07 12:36:11;;;;;;;5.90;2.90;;;;;;;26.24;30.54;99701.50;4866856;29;20214;-85
2023/10/07 12:38:42;;;;;;;5.45;2.88;;;;;;;26.42;31.05;99705.06;4865214;29;20218;-85
2023/10/07 12:41:13;;;;;;;6.07;3.00;;;;;;;26.57;29.77;99702.66;4849727;29;21104;-85
2023/10/07 12:43:42;;;;;;;4.07;2.92;;;;;;;26.74;30.41;99704.59;4864685;29;20211;-85
2023/10/07 12:46:10;;;;;;;3.63;2.85;;;;;;;26.94;29.82;99706.69;4896632;29;20210;-85
2023/10/07 12:48:41;;;;;;;4.25;2.90;;;;;;;26.94;30.24;99712.19;4880172;29;20225;-85
2023/10/07 12:51:13;;;;;;;3.92;2.50;;;;;;;27.05;29.90;99698.94;4880084;29;20209;-85
2023/10/07 12:53:45;;;;;;;3.53;2.25;;;;;;;27.00;30.78;99699.09;4868418;29;20207;-85
2023/10/07 12:56:14;;;;;;;4.35;2.45;;;;;;;26.98;30.30;99695.84;4896605;29;20210;-85
2023/10/07 12:58:46;;;;;;;4.43;2.42;;;;;;;27.12;29.97;99696.47;4864376;29;20695;-85
2023/10/07 13:01:14;;;;;;;3.58;2.42;;;;;;;27.08;29.55;99699.06;4864169;29;20715;-85
2023/10/07 13:03:44;;;;;;;3.25;2.47;;;;;;;27.27;29.56;99701.44;4895253;29;20326;-85
2023/10/07 13:06:19;;;;;;;3.78;2.60;;;;;;;27.14;30.39;99696.97;4879711;29;20234;-85
2023/10/07 13:08:53;;;;;;;2.95;2.30;;;;;;;27.03;29.78;99691.00;4877863;29;20323;-85
2023/10/07 13:11:26;;;;;;;2.95;2.45;;;;;;;27.12;30.52;99708.28;4879913;29;20245;-84
2023/10/07 13:13:56;;;;;;;4.00;2.63;;;;;;;26.81;29.53;99702.16;4887320;29;20249;-85
2023/10/07 13:16:26;;;;;;;3.05;2.50;;;;;;;26.74;29.47;99705.41;4857936;29;20206;-84
2023/10/07 13:18:54;;;;;;;6.25;2.70;;;;;;;26.64;29.49;99700.22;4885918;29;20216;-85
2023/10/07 13:21:29;;;;;;;5.13;2.80;;;;;;;26.57;29.58;99696.34;4889875;29;20210;-85
2023/10/07 13:23:57;;;;;;;8.65;2.97;;;;;;;26.47;29.65;99683.75;4869286;29;20291;-84
2023/10/07 13:26:24;;;;;;;8.02;3.45;;;;;;;26.33;29.60;99699.56;4876621;29;20283;-85
2023/10/07 13:28:54;;;;;;;9.57;3.17;;;;;;;25.99;29.65;99689.31;4857176;29;20691;-84
2023/10/07 13:31:22;;;;;;;5.15;3.10;;;;;;;26.18;29.56;99687.09;4868814;29;20273;-85
2023/10/07 13:33:55;;;;;;;7.20;3.05;;;;;;;26.38;30.34;99682.94;4846514;29;20208;-85
2023/10/07 13:36:24;;;;;;;4.55;3.10;;;;;;;26.42;30.52;99688.59;4862617;29;20200;-85
2023/10/07 13:38:52;;;;;;;9.05;3.35;;;;;;;26.18;30.40;99689.84;4854449;29;20211;-85
2023/10/07 13:41:23;;;;;;;6.55;3.28;;;;;;;25.89;30.08;99700.63;4880564;29;20246;-84
2023/10/07 13:43:52;;;;;;;9.90;3.20;;;;;;;25.74;29.64;99690.88;4865593;29;20265;-85
2023/10/07 13:46:21;;;;;;;10.57;3.25;;;;;;;25.59;30.42;99680.34;4849709;29;20206;-85
2023/10/07 13:48:48;;;;;;;4.13;3.13;;;;;;;25.45;31.05;99685.09;4852104;29;20684;-85
2023/10/07 13:51:16;;;;;;;6.40;3.10;;;;;;;25.49;30.32;99685.25;4860665;29;20285;-85
2023/10/07 13:56:44;;;;;;;5.32;3.17;;;;;;;25.26;30.66;99679.03;4887485;29;20211;-85
2023/10/07 13:59:13;;;;;;;4.97;3.03;;;;;;;25.39;29.76;99672.63;4850116;29;20214;-85
2023/10/07 14:01:44;;;;;;;5.80;3.15;;;;;;;25.27;30.16;99677.91;4851367;29;20199;-85
2023/10/07 14:04:18;;;;;;;4.32;3.20;;;;;;;25.06;29.71;99693.25;4857705;29;20207;-85
2023/10/07 14:06:47;;;;;;;6.53;3.20;;;;;;;25.06;28.48;99685.84;4856655;29;20231;-86
2023/10/07 14:09:24;;;;;;;5.47;3.28;;;;;;;24.92;27.90;99693.34;4850018;29;20223;-85
2023/10/07 14:11:54;;;;;;;5.63;3.33;;;;;;;24.84;27.98;99694.88;4869161;29;20329;-85
2023/10/07 14:14:26;;;;;;;3.90;2.90;;;;;;;24.67;28.77;99681.06;4854529;29;20212;-85
2023/10/07 14:16:58;;;;;;;4.28;3.20;;;;;;;24.56;29.02;99669.53;4849619;29;20220;-85
2023/10/07 14:19:31;;;;;;;4.22;2.90;;;;;;;24.59;27.69;99675.53;4851799;29;20218;-86
2023/10/07 14:21:58;;;;;;;3.22;2.75;;;;;;;24.44;27.72;99666.56;4836024;29;20204;-85
2023/10/07 14:24:29;;;;;;;5.88;2.85;;;;;;;24.54;27.94;99673.72;4851876;29;20200;-86
2023/10/07 14:26:59;;;;;;;3.47;2.60;;;;;;;24.31;28.26;99670.13;4866226;29;20239;-85
2023/10/07 14:29:27;;;;;;;5.85;2.90;;;;;;;24.26;29.26;99675.75;4848521;29;20228;-85
2023/10/07 14:31:55;;;;;;;4.20;3.03;;;;;;;24.22;29.20;99666.50;4877353;29;20191;-85
2023/10/07 14:34:22;;;;;;;5.82;2.72;;;;;;;24.18;29.08;99670.97;4895413;29;20199;-85
2023/10/07 14:36:50;;;;;;;4.95;2.92;;;;;;;24.06;30.12;99676.97;4895818;29;20226;-86
2023/10/07 14:39:22;;;;;;;3.50;2.50;;;;;;;24.02;29.95;99666.94;4898259;29;20261;-85
2023/10/07 14:42:09;;;;;;;5.07;2.92;;;;;;;23.98;29.89;99685.09;4860608;29;20587;-86
2023/10/07 14:44:47;;;;;;;3.30;2.60;;;;;;;23.70;30.46;99689.78;4876028;29;20195;-86
2023/10/07 14:47:15;;;;;;;6.28;3.00;;;;;;;23.60;30.24;99698.19;4877580;29;20213;-86
2023/10/07 14:49:44;;;;;;;3.88;2.88;;;;;;;23.48;30.95;99697.84;4866633;29;20217;-86
2023/10/07 14:52:16;;;;;;;3.47;2.30;;;;;;;23.58;31.25;99700.41;4881872;29;20249;-86
2023/10/07 14:54:44;;;;;;;4.05;2.63;;;;;;;23.36;31.44;99701.06;4878358;29;20246;-86
2023/10/07 14:57:17;;;;;;;3.97;2.72;;;;;;;23.27;31.84;99697.41;4865901;29;20242;-86
2023/10/07 14:59:45;;;;;;;4.40;2.67;;;;;;;23.19;32.14;99700.81;4895379;29;20315;-86
2023/10/07 15:02:13;;;;;;;3.40;2.38;;;;;;;23.05;33.14;99700.78;4880514;29;20228;-86
2023/10/07 15:04:41;;;;;;;4.32;2.78;;;;;;;23.11;32.78;99712.44;4881401;29;20203;-86
2023/10/07 15:07:08;;;;;;;3.03;2.70;;;;;;;23.05;32.90;99705.47;4881364;29;20287;-86
2023/10/07 15:09:36;;;;;;;5.72;2.50;;;;;;;22.86;33.48;99697.31;4881261;29;20288;-86
2023/10/07 15:12:07;;;;;;;5.07;3.03;;;;;;;22.81;34.06;99711.06;4882398;29;20609;-84
2023/10/07 15:14:35;;;;;;;4.00;2.80;;;;;;;22.77;34.02;99721.75;4866560;29;20213;-86
2023/10/07 15:17:05;;;;;;;6.43;2.67;;;;;;;22.74;34.21;99710.63;4875391;29;20251;-86
2023/10/07 15:19:33;;;;;;;4.55;3.28;;;;;;;22.82;33.91;99715.38;4874146;29;20203;-85
2023/10/07 15:22:05;;;;;;;4.38;2.65;;;;;;;22.71;34.03;99724.88;4890114;29;20315;-86
2023/10/07 15:24:34;;;;;;;7.22;2.70;;;;;;;22.65;33.86;99721.38;4894929;29;20230;-86
2023/10/07 15:27:02;;;;;;;6.13;2.88;;;;;;;22.60;33.69;99731.56;4868411;29;20210;-86
2023/10/07 15:29:35;;;;;;;4.38;2.80;;;;;;;22.57;33.89;99722.06;4880929;29;20627;-86
2023/10/07 15:32:03;;;;;;;4.10;2.53;;;;;;;22.60;33.82;99724.19;4874197;29;20214;-86
2023/10/07 15:34:35;;;;;;;4.07;2.80;;;;;;;22.54;34.10;99728.09;4859563;29;20214;-85
2023/10/07 15:37:09;;;;;;;3.83;2.95;;;;;;;22.42;34.38;99714.06;4893784;29;20215;-86
2023/10/07 15:39:38;;;;;;;4.95;2.80;;;;;;;22.39;34.49;99731.06;4878541;29;20203;-86
2023/10/07 15:42:08;;;;;;;4.60;3.08;;;;;;;22.38;34.62;99735.69;4865660;29;20203;-85
2023/10/07 15:44:36;;;;;;;3.78;2.90;;;;;;;22.42;35.64;99732.38;4868832;29;20206;-86
2023/10/07 15:47:04;;;;;;;3.22;2.33;;;;;;;22.43;35.97;99726.63;4907378;29;20253;-85
2023/10/07 15:49:32;;;;;;;4.05;2.78;;;;;;;22.30;36.35;99728.16;4875103;29;20606;-86
2023/10/07 15:52:02;;;;;;;4.65;2.58;;;;;;;22.30;36.69;99727.38;4866701;29;20279;-87
2023/10/07 15:54:33;;;;;;;4.28;3.05;;;;;;;22.20;36.91;99717.41;4854113;29;20214;-86
2023/10/07 15:57:04;;;;;;;7.57;3.10;;;;;;;22.16;37.42;99721.00;4867790;29;20194;-85
2023/10/07 15:59:37;;;;;;;6.88;2.70;;;;;;;21.94;38.25;99727.81;4881268;29;20278;-85
2023/10/07 16:02:09;;;;;;;3.55;2.78;;;;;;;22.08;38.36;99718.91;4888833;29;20282;-85
2023/10/07 16:04:37;;;;;;;6.57;2.90;;;;;;;22.00;38.79;99712.19;4881767;29;20262;-86
2023/10/07 16:07:10;;;;;;;5.10;2.60;;;;;;;21.87;39.86;99710.16;4866527;29;20784;-85
2023/10/07 16:09:41;;;;;;;5.28;2.97;;;;;;;21.82;40.29;99702.84;4866791;29;20647;-86
2023/10/07 16:12:14;;;;;;;4.93;2.90;;;;;;;21.75;40.88;99707.84;4881308;29;20239;-86
2023/10/07 16:14:43;;;;;;;6.22;3.10;;;;;;;21.76;41.78;99703.19;4881254;29;20223;-86
2023/10/07 16:17:13;;;;;;;5.70;2.72;;;;;;;21.64;42.36;99698.16;4890054;29;20211;-86
2023/10/07 16:19:42;;;;;;;4.78;2.85;;;;;;;21.52;43.05;99700.47;4876014;29;20277;-86
2023/10/07 16:22:15;;;;;;;5.13;3.00;;;;;;;21.52;43.29;99692.28;4875665;29;20330;-84
2023/10/07 16:24:43;;;;;;;4.07;2.67;;;;;;;21.38;43.86;99697.63;4893716;29;20214;-85
2023/10/07 16:27:14;;;;;;;4.38;3.08;;;;;;;21.42;43.81;99706.84;4844105;29;20676;-85
2023/10/07 16:29:42;;;;;;;3.97;2.72;;;;;;;21.33;44.11;99705.84;4892208;29;20203;-85
2023/10/07 16:32:15;;;;;;;5.05;2.83;;;;;;;21.32;44.32;99704.22;4880767;29;20211;-84
2023/10/07 16:34:43;;;;;;;5.10;2.70;;;;;;;21.20;44.03;99708.44;4880965;29;20206;-85
2023/10/07 16:37:19;;;;;;;6.90;2.80;;;;;;;21.18;44.15;99711.47;4888919;29;20203;-85
2023/10/07 16:39:48;;;;;;;6.13;2.53;;;;;;;21.21;44.26;99710.88;4863938;29;20285;-85
2023/10/07 16:42:16;;;;;;;4.90;2.50;;;;;;;21.25;43.90;99708.38;4895554;29;20207;-85
2023/10/07 16:44:56;;;;;;;4.78;3.53;;;;;;;21.28;44.14;99710.53;4897233;29;20611;-85
2023/10/07 16:47:27;;;;;;;7.78;3.28;;;;;;;21.13;44.45;99700.63;4880341;29;20253;-85
2023/10/07 16:49:55;;;;;;;4.78;3.15;;;;;;;21.19;44.39;99713.06;4865121;29;20205;-85
2023/10/07 16:52:30;;;;;;;6.40;3.08;;;;;;;21.10;44.61;99721.03;4895563;29;20199;-85
2023/10/07 16:55:06;;;;;;;6.27;2.80;;;;;;;21.01;44.45;99711.84;4868436;29;20219;-85
2023/10/07 16:57:38;;;;;;;3.35;2.63;;;;;;;20.97;44.92;99718.97;4878930;29;20746;-85
2023/10/07 17:00:14;;;;;;;4.80;3.03;;;;;;;20.88;45.35;99711.69;4884242;29;20250;-85
2023/10/07 17:02:42;;;;;;;3.60;2.70;;;;;;;21.00;44.87;99714.84;4896673;29;20309;-85
2023/10/07 17:05:15;;;;;;;3.50;2.60;;;;;;;21.08;44.16;99711.53;4884248;29;20200;-85
2023/10/07 17:07:45;;;;;;;4.93;2.80;;;;;;;20.99;44.58;99711.34;4899566;29;20746;-84
2023/10/07 17:10:13;;;;;;;5.13;2.63;;;;;;;20.92;44.35;99707.31;4861147;29;20307;-85
2023/10/07 17:12:42;;;;;;;4.33;2.70;;;;;;;20.97;43.99;99699.91;4883869;29;20273;-85
2023/10/07 17:15:10;;;;;;;4.32;2.60;;;;;;;20.92;43.31;99710.84;4882838;29;20235;-85
2023/10/07 17:17:37;;;;;;;5.00;3.03;;;;;;;20.97;43.07;99713.53;4882731;29;20211;-85
2023/10/07 17:20:11;;;;;;;4.73;2.70;;;;;;;21.07;42.84;99707.16;4853242;29;20584;-86
2023/10/07 17:22:42;;;;;;;4.80;2.80;;;;;;;20.97;42.79;99708.06;4855074;29;20301;-85
2023/10/07 17:25:12;;;;;;;7.77;3.20;;;;;;;21.07;42.16;99709.91;4866208;29;20208;-85
2023/10/07 17:27:42;;;;;;;5.13;2.60;;;;;;;21.07;41.89;99724.34;4881546;29;20235;-85
2023/10/07 17:30:15;;;;;;;4.30;2.83;;;;;;;21.10;41.71;99722.94;4856140;29;20208;-86
2023/10/07 17:32:43;;;;;;;4.03;2.70;;;;;;;21.11;41.54;99716.38;4856434;29;20676;-86
2023/10/07 17:35:11;;;;;;;3.10;2.40;;;;;;;21.15;41.99;99722.09;4873709;29;20214;-85
2023/10/07 17:37:39;;;;;;;4.80;2.80;;;;;;;21.13;41.92;99719.69;4883475;29;20246;-86
2023/10/07 17:40:12;;;;;;;3.00;2.53;;;;;;;21.02;41.91;99708.03;4888754;29;20686;-85
2023/10/07 17:42:41;;;;;;;5.07;2.83;;;;;;;20.89;42.43;99716.88;4867749;29;20218;-85
2023/10/07 17:45:20;;;;;;;3.78;2.85;;;;;;;20.97;42.09;99699.09;4877178;29;20786;-85
2023/10/07 17:47:55;;;;;;;4.20;2.50;;;;;;;20.91;42.15;99703.75;4863556;29;20619;-85
2023/10/07 17:50:24;;;;;;;4.22;2.80;;;;;;;21.00;41.94;99709.41;4867509;29;20218;-85
2023/10/07 17:52:56;;;;;;;3.80;2.73;;;;;;;20.94;42.04;99711.38;4881331;29;20809;-85
2023/10/07 17:55:24;;;;;;;5.57;2.60;;;;;;;20.99;42.12;99703.16;4849607;29;20216;-85
2023/10/07 17:58:05;;;;;;;3.67;2.47;;;;;;;20.99;41.97;99708.63;4866489;29;20292;-85
2023/10/07 18:00:33;;;;;;;3.00;2.40;;;;;;;20.92;41.88;99702.66;4858219;29;20205;-85
2023/10/07 18:03:04;;;;;;;5.50;2.70;;;;;;;20.89;41.85;99697.00;4862176;29;20232;-84
2023/10/07 18:05:34;;;;;;;3.37;2.83;;;;;;;20.95;41.85;99701.31;4880447;29;20255;-85
2023/10/07 18:08:03;;;;;;;3.67;2.60;;;;;;;20.93;41.83;99709.75;4882884;29;20217;-85
2023/10/07 18:10:31;;;;;;;4.15;2.70;;;;;;;21.03;41.98;99700.69;4878835;29;20211;-85
2023/10/07 18:13:05;;;;;;;4.53;2.63;;;;;;;20.89;42.03;99699.72;4905840;29;20232;-85
2023/10/07 18:15:34;;;;;;;3.17;2.60;;;;;;;20.87;42.54;99707.34;4866925;29;20214;-85
2023/10/07 18:18:05;;;;;;;3.63;2.60;;;;;;;21.04;42.08;99710.47;4898598;29;20671;-84
2023/10/07 18:20:34;;;;;;;5.17;2.87;;;;;;;20.91;42.35;99709.22;4883055;29;20297;-85
2023/10/07 18:23:03;;;;;;;4.13;2.80;;;;;;;20.80;42.77;99702.25;4897956;29;20218;-85
2023/10/07 18:25:35;;;;;;;4.75;3.10;;;;;;;20.87;42.51;99700.00;4884210;29;20210;-84
2023/10/07 18:28:02;;;;;;;4.17;2.90;;;;;;;20.79;42.88;99703.31;4899290;29;20213;-85
2023/10/07 18:30:31;;;;;;;4.00;2.67;;;;;;;20.74;43.32;99699.81;4883757;29;20217;-85
2023/10/07 18:32:59;;;;;;;4.57;3.00;;;;;;;20.77;43.45;99694.63;4900754;29;20204;-85
2023/10/07 18:35:30;;;;;;;3.90;2.70;;;;;;;20.79;42.88;99695.16;4884181;29;20201;-85
2023/10/07 18:38:04;;;;;;;3.83;2.72;;;;;;;20.76;43.40;99694.91;4899412;29;20260;-85
2023/10/07 18:40:33;;;;;;;3.93;3.03;;;;;;;20.79;42.92;99689.72;4897831;29;20221;-84
2023/10/07 18:43:03;;;;;;;4.35;2.97;;;;;;;20.73;42.96;99692.75;4881572;29;20233;-85
2023/10/07 18:45:33;;;;;;;4.00;2.63;;;;;;;20.82;42.20;99682.88;4869035;29;20214;-85
2023/10/07 18:48:05;;;;;;;4.93;3.10;;;;;;;20.85;42.22;99690.50;4897003;29;20302;-85
2023/10/07 18:50:42;;;;;;;5.10;3.33;;;;;;;20.74;42.48;99680.78;4868745;29;20204;-85
2023/10/07 18:53:10;;;;;;;4.37;2.60;;;;;;;20.73;42.40;99685.41;4854149;29;20302;-85
2023/10/07 18:56:01;;;;;;;3.63;2.50;;;;;;;20.78;42.45;99690.00;4884015;29;20207;-85
2023/10/07 18:58:30;;;;;;;3.97;2.77;;;;;;;20.77;42.30;99691.09;4897769;29;20206;-85
2023/10/07 19:00:59;;;;;;;3.30;2.55;;;;;;;20.87;42.04;99686.38;4881152;29;20205;-85
2023/10/07 19:03:31;;;;;;;4.90;2.90;;;;;;;20.86;42.06;99673.84;4882261;29;20219;-85
2023/10/07 19:06:02;;;;;;;3.93;2.73;;;;;;;20.97;42.18;99666.41;4882540;29;20310;-85
2023/10/07 19:08:31;;;;;;;4.57;2.90;;;;;;;21.04;42.14;99675.84;4882127;29;20286;-85
2023/10/07 19:11:09;;;;;;;4.53;2.83;;;;;;;21.09;42.15;99666.81;4881903;29;20198;-85